Time;durP1;ratioP1;P1;durP2;ratioP2;P2;SDS_P1;SDS_P2;PMS_P1;PMS_P2;Temp;Humidity;BMP_temperature;BMP_pressure;BME280_temperature;BME280_humidity;BME280_pressure;Samples;Min_cycle;Max_cycle;Signal;HPM_P1;HPM_P2
2023/10/31 00:02:21;;;;;;;64.95;23.85;;;;;;;;;;4926209;29;20082;-83
2023/10/31 00:04:47;;;;;;;76.13;24.90;;;;;;;;;;4929129;29;20043;-83
2023/10/31 00:07:13;;;;;;;75.35;27.55;;;;;;;;;;4923492;29;20039;-82
2023/10/31 00:09:39;;;;;;;86.30;27.75;;;;;;;;;;4928432;29;20040;-82
2023/10/31 00:12:06;;;;;;;78.50;28.45;;;;;;;;;;4926652;29;20024;-82
2023/10/31 00:14:32;;;;;;;71.32;27.83;;;;;;;;;;4921814;29;20046;-82
2023/10/31 00:16:58;;;;;;;86.85;26.88;;;;;;;;;;4912237;29;20034;-82
2023/10/31 00:19:24;;;;;;;79.90;27.77;;;;;;;;;;4929305;29;20131;-80
2023/10/31 00:21:51;;;;;;;86.55;28.15;;;;;;;;;;4913503;29;20084;-82
2023/10/31 00:24:18;;;;;;;67.82;25.42;;;;;;;;;;4923815;29;20223;-81
2023/10/31 00:26:44;;;;;;;82.25;26.70;;;;;;;;;;4920496;29;21345;-81
2023/10/31 00:29:14;;;;;;;82.93;26.38;;;;;;;;;;4925974;29;20111;-82
2023/10/31 00:31:41;;;;;;;84.35;25.58;;;;;;;;;;4927173;29;20024;-83
2023/10/31 00:34:08;;;;;;;80.53;25.08;;;;;;;;;;4933194;29;20051;-83
2023/10/31 00:36:34;;;;;;;82.50;25.35;;;;;;;;;;4934728;29;20028;-82
2023/10/31 00:39:00;;;;;;;71.35;24.30;;;;;;;;;;4930333;29;20478;-82
2023/10/31 00:41:26;;;;;;;72.07;25.35;;;;;;;;;;4927232;29;20046;-82
2023/10/31 00:43:52;;;;;;;71.20;24.27;;;;;;;;;;4901864;29;20036;-83
2023/10/31 00:46:19;;;;;;;57.65;21.80;;;;;;;;;;4927494;29;20070;-83
2023/10/31 00:48:45;;;;;;;55.88;19.83;;;;;;;;;;4911765;29;20035;-83
2023/10/31 00:51:11;;;;;;;55.92;20.13;;;;;;;;;;4936488;29;20063;-84
2023/10/31 00:53:37;;;;;;;52.58;20.98;;;;;;;;;;4927388;29;20036;-82
2023/10/31 00:56:03;;;;;;;57.42;21.60;;;;;;;;;;4925227;29;20329;-82
2023/10/31 00:58:30;;;;;;;60.58;21.13;;;;;;;;;;4925025;29;20063;-83
2023/10/31 01:00:56;;;;;;;65.68;22.08;;;;;;;;;;4926658;29;20465;-83
2023/10/31 01:03:22;;;;;;;67.15;22.63;;;;;;;;;;4921487;29;20162;-82
2023/10/31 01:05:48;;;;;;;62.20;20.77;;;;;;;;;;4925117;29;20040;-83
2023/10/31 01:08:15;;;;;;;53.50;21.48;;;;;;;;;;4903702;29;20040;-83
2023/10/31 01:10:41;;;;;;;56.03;19.45;;;;;;;;;;4931949;29;20061;-82
2023/10/31 01:13:07;;;;;;;52.65;17.65;;;;;;;;;;4929092;29;20036;-83
2023/10/31 01:15:34;;;;;;;47.40;16.35;;;;;;;;;;4930784;29;20046;-82
2023/10/31 01:18:00;;;;;;;50.38;14.95;;;;;;;;;;4928914;29;20036;-81
2023/10/31 01:20:27;;;;;;;44.58;14.02;;;;;;;;;;4928074;29;20032;-81
2023/10/31 01:22:53;;;;;;;40.97;12.50;;;;;;;;;;4928586;29;20046;-81
2023/10/31 01:25:20;;;;;;;34.17;12.75;;;;;;;;;;4934794;29;20201;-83
2023/10/31 01:27:46;;;;;;;41.72;14.05;;;;;;;;;;4937079;29;20032;-81
2023/10/31 01:30:13;;;;;;;46.20;16.88;;;;;;;;;;4926189;29;20036;-82
2023/10/31 01:32:39;;;;;;;50.83;17.00;;;;;;;;;;4941021;29;20035;-83
2023/10/31 01:35:05;;;;;;;53.42;18.13;;;;;;;;;;4931488;29;20868;-82
2023/10/31 01:37:32;;;;;;;60.83;19.80;;;;;;;;;;4951823;28;20036;-85
2023/10/31 01:39:58;;;;;;;53.13;19.42;;;;;;;;;;4935134;29;20028;-82
2023/10/31 01:42:24;;;;;;;70.05;22.13;;;;;;;;;;4931139;29;20036;-82
2023/10/31 01:44:50;;;;;;;65.65;24.35;;;;;;;;;;4929616;29;21215;-82
2023/10/31 01:47:18;;;;;;;67.90;24.70;;;;;;;;;;4928197;29;20039;-84
2023/10/31 01:49:44;;;;;;;72.28;26.52;;;;;;;;;;4927102;29;20131;-83
2023/10/31 01:52:10;;;;;;;76.20;28.30;;;;;;;;;;4941705;29;20039;-82
2023/10/31 01:54:38;;;;;;;71.32;28.98;;;;;;;;;;4929228;29;20047;-83
2023/10/31 01:57:05;;;;;;;89.30;33.08;;;;;;;;;;4927043;29;20023;-82
2023/10/31 01:59:32;;;;;;;87.75;33.83;;;;;;;;;;4919926;29;20024;-83
2023/10/31 02:01:58;;;;;;;88.05;36.47;;;;;;;;;;4926355;29;20040;-83
2023/10/31 02:04:25;;;;;;;80.10;35.80;;;;;;;;;;4929247;29;20036;-81
2023/10/31 02:06:51;;;;;;;87.63;35.83;;;;;;;;;;4923700;29;20028;-82
2023/10/31 02:09:18;;;;;;;96.70;35.63;;;;;;;;;;4927611;29;20027;-82
2023/10/31 02:11:45;;;;;;;87.18;35.40;;;;;;;;;;4930342;29;20091;-82
2023/10/31 02:14:14;;;;;;;74.00;31.38;;;;;;;;;;4924512;29;20145;-83
2023/10/31 02:16:40;;;;;;;76.38;33.40;;;;;;;;;;4924943;29;20028;-83
2023/10/31 02:19:07;;;;;;;78.30;31.40;;;;;;;;;;4922649;29;20019;-82
2023/10/31 02:21:34;;;;;;;72.45;31.05;;;;;;;;;;4911412;29;21392;-82
2023/10/31 02:24:01;;;;;;;59.53;25.55;;;;;;;;;;4923663;29;20031;-81
2023/10/31 02:26:31;;;;;;;57.65;23.50;;;;;;;;;;4926652;29;20051;-82
2023/10/31 02:28:57;;;;;;;54.17;22.23;;;;;;;;;;4929706;29;20037;-83
2023/10/31 02:31:23;;;;;;;50.72;21.23;;;;;;;;;;4926334;29;20071;-83
2023/10/31 02:33:49;;;;;;;55.75;20.40;;;;;;;;;;4912715;29;20118;-81
2023/10/31 02:36:16;;;;;;;49.05;20.48;;;;;;;;;;4927429;29;20051;-81
2023/10/31 02:38:42;;;;;;;49.33;19.70;;;;;;;;;;4927098;29;20020;-82
2023/10/31 02:41:08;;;;;;;48.42;19.42;;;;;;;;;;4911630;29;20171;-82
2023/10/31 02:43:36;;;;;;;55.65;19.83;;;;;;;;;;4935404;29;20054;-83
2023/10/31 02:46:02;;;;;;;51.53;20.13;;;;;;;;;;4926674;29;20036;-82
2023/10/31 02:48:29;;;;;;;59.83;20.60;;;;;;;;;;4927408;29;20074;-81
2023/10/31 02:50:55;;;;;;;46.67;19.73;;;;;;;;;;4926553;29;20044;-82
2023/10/31 02:53:21;;;;;;;55.15;19.58;;;;;;;;;;4924677;29;20035;-82
2023/10/31 02:55:48;;;;;;;53.55;21.27;;;;;;;;;;4927907;29;20031;-82
2023/10/31 02:58:14;;;;;;;59.75;20.25;;;;;;;;;;4928199;29;20031;-82
2023/10/31 03:00:40;;;;;;;43.83;17.85;;;;;;;;;;4922314;29;20028;-82
2023/10/31 03:03:08;;;;;;;44.75;16.95;;;;;;;;;;4926601;29;20055;-82
2023/10/31 03:05:34;;;;;;;43.38;15.88;;;;;;;;;;4919778;29;20040;-81
2023/10/31 03:08:00;;;;;;;44.45;14.40;;;;;;;;;;4940426;29;20035;-82
2023/10/31 03:10:27;;;;;;;34.78;11.40;;;;;;;;;;4924219;29;20036;-81
2023/10/31 03:12:53;;;;;;;30.92;10.65;;;;;;;;;;4926149;29;20036;-82
2023/10/31 03:15:19;;;;;;;24.25;8.45;;;;;;;;;;4926773;29;20488;-81
2023/10/31 03:17:45;;;;;;;22.00;8.43;;;;;;;;;;4926865;29;20276;-80
2023/10/31 03:20:12;;;;;;;20.05;7.28;;;;;;;;;;4922927;29;20036;-81
2023/10/31 03:22:38;;;;;;;18.70;6.55;;;;;;;;;;4928392;29;20032;-82
2023/10/31 03:25:04;;;;;;;13.38;5.32;;;;;;;;;;4928460;29;20028;-81
2023/10/31 03:27:31;;;;;;;15.82;5.88;;;;;;;;;;4908785;29;20501;-80
2023/10/31 03:29:58;;;;;;;11.15;4.93;;;;;;;;;;4926772;29;20035;-82
2023/10/31 03:32:24;;;;;;;14.80;4.32;;;;;;;;;;4931525;29;20038;-82
2023/10/31 03:34:50;;;;;;;14.98;4.28;;;;;;;;;;4931428;29;20112;-82
2023/10/31 03:37:16;;;;;;;15.27;4.68;;;;;;;;;;4933807;29;20504;-82
2023/10/31 03:39:43;;;;;;;16.25;4.60;;;;;;;;;;4926335;29;20035;-80
2023/10/31 03:42:09;;;;;;;15.27;4.28;;;;;;;;;;4932449;29;20019;-83
2023/10/31 03:44:35;;;;;;;14.05;3.65;;;;;;;;;;4932428;29;20059;-82
2023/10/31 03:47:02;;;;;;;18.58;4.00;;;;;;;;;;4923841;29;20044;-81
2023/10/31 03:49:28;;;;;;;9.95;3.45;;;;;;;;;;4929263;29;20102;-82
2023/10/31 03:51:54;;;;;;;15.27;3.72;;;;;;;;;;4928234;29;20036;-81
2023/10/31 03:54:22;;;;;;;13.02;4.05;;;;;;;;;;4924347;29;20099;-82
2023/10/31 03:56:48;;;;;;;9.75;2.58;;;;;;;;;;4937099;29;20437;-82
2023/10/31 03:59:16;;;;;;;13.13;2.88;;;;;;;;;;4923965;29;20036;-82
2023/10/31 04:01:43;;;;;;;7.63;2.15;;;;;;;;;;4922278;29;20047;-81
2023/10/31 04:04:09;;;;;;;9.52;2.33;;;;;;;;;;4925931;29;20055;-82
2023/10/31 04:06:37;;;;;;;4.60;1.60;;;;;;;;;;4924857;29;20036;-81
2023/10/31 04:09:03;;;;;;;12.75;1.83;;;;;;;;;;4939626;29;20035;-81
2023/10/31 04:11:30;;;;;;;10.02;1.60;;;;;;;;;;4909369;29;20059;-82
2023/10/31 04:13:56;;;;;;;4.88;1.20;;;;;;;;;;4922322;29;20082;-81
2023/10/31 04:16:22;;;;;;;2.83;1.30;;;;;;;;;;4916656;29;20054;-81
2023/10/31 04:18:48;;;;;;;10.23;1.55;;;;;;;;;;4922950;29;20103;-81
2023/10/31 04:21:14;;;;;;;7.90;1.23;;;;;;;;;;4926878;29;20039;-82
2023/10/31 04:23:40;;;;;;;3.78;0.88;;;;;;;;;;4923602;29;20094;-82
2023/10/31 04:26:06;;;;;;;2.47;1.00;;;;;;;;;;4926908;29;20280;-80
2023/10/31 04:28:33;;;;;;;3.40;1.00;;;;;;;;;;4923738;29;20106;-82
2023/10/31 04:30:59;;;;;;;2.10;0.95;;;;;;;;;;4925146;29;20063;-81
2023/10/31 04:33:25;;;;;;;5.65;1.30;;;;;;;;;;4922007;29;20035;-82
2023/10/31 04:35:51;;;;;;;6.32;1.05;;;;;;;;;;4917287;29;20035;-81
2023/10/31 04:38:17;;;;;;;3.88;0.75;;;;;;;;;;4904285;29;20032;-81
2023/10/31 04:40:44;;;;;;;7.07;1.45;;;;;;;;;;4926041;29;20032;-82
2023/10/31 04:43:10;;;;;;;7.47;0.88;;;;;;;;;;4926593;29;20039;-82
2023/10/31 04:45:37;;;;;;;7.07;1.00;;;;;;;;;;4930567;29;20055;-83
2023/10/31 04:48:03;;;;;;;8.77;1.15;;;;;;;;;;4929645;29;20027;-81
2023/10/31 04:50:30;;;;;;;6.70;1.20;;;;;;;;;;4928683;29;20024;-82
2023/10/31 04:52:56;;;;;;;8.02;1.00;;;;;;;;;;4936807;29;20055;-81
2023/10/31 04:55:22;;;;;;;3.28;1.65;;;;;;;;;;4915662;29;20035;-82
2023/10/31 04:57:49;;;;;;;7.47;1.00;;;;;;;;;;4927921;29;20026;-81
2023/10/31 05:00:15;;;;;;;2.92;1.10;;;;;;;;;;4920922;29;20036;-83
2023/10/31 05:02:41;;;;;;;2.90;0.80;;;;;;;;;;4927240;29;20052;-82
2023/10/31 05:05:07;;;;;;;4.78;1.33;;;;;;;;;;4930788;29;20136;-81
2023/10/31 05:07:33;;;;;;;3.78;1.30;;;;;;;;;;4931591;29;20122;-81
2023/10/31 05:10:00;;;;;;;4.50;1.30;;;;;;;;;;4923901;29;20045;-81
2023/10/31 05:12:26;;;;;;;6.38;1.65;;;;;;;;;;4927418;29;20040;-82
2023/10/31 05:14:52;;;;;;;5.35;1.45;;;;;;;;;;4928718;29;20082;-83
2023/10/31 05:17:18;;;;;;;8.55;1.77;;;;;;;;;;4929076;29;20056;-81
2023/10/31 05:19:44;;;;;;;11.13;1.80;;;;;;;;;;4931961;29;20028;-81
2023/10/31 05:22:10;;;;;;;6.82;1.83;;;;;;;;;;4930817;29;20103;-81
2023/10/31 05:24:36;;;;;;;11.02;2.80;;;;;;;;;;4944394;29;20027;-81
2023/10/31 05:27:05;;;;;;;11.30;3.63;;;;;;;;;;4928586;29;20771;-81
2023/10/31 05:29:31;;;;;;;14.07;4.10;;;;;;;;;;4927876;29;20510;-82
2023/10/31 05:31:57;;;;;;;15.38;5.50;;;;;;;;;;4928875;29;20441;-82
2023/10/31 05:34:23;;;;;;;20.60;7.20;;;;;;;;;;4919942;29;20437;-84
2023/10/31 05:36:49;;;;;;;23.00;7.85;;;;;;;;;;4925100;29;20560;-82
2023/10/31 05:39:15;;;;;;;17.05;8.77;;;;;;;;;;4932119;29;20489;-82
2023/10/31 05:41:42;;;;;;;14.93;9.25;;;;;;;;;;4944540;29;20032;-82
2023/10/31 05:44:08;;;;;;;20.75;8.98;;;;;;;;;;4929566;29;20126;-82
2023/10/31 05:46:44;;;;;;;15.65;8.98;;;;;;;;;;4927452;29;20043;-82
2023/10/31 05:49:10;;;;;;;17.75;9.60;;;;;;;;;;4926749;29;20028;-81
2023/10/31 05:51:37;;;;;;;17.08;8.82;;;;;;;;;;4924940;29;20027;-81
2023/10/31 05:54:07;;;;;;;17.75;9.40;;;;;;;;;;4927956;29;20476;-81
2023/10/31 05:56:33;;;;;;;19.88;10.38;;;;;;;;;;4929511;29;20032;-81
2023/10/31 05:58:59;;;;;;;28.85;12.73;;;;;;;;;;4930929;29;20382;-82
2023/10/31 06:01:25;;;;;;;26.60;15.85;;;;;;;;;;4922510;29;20074;-80
2023/10/31 06:03:51;;;;;;;38.65;19.05;;;;;;;;;;4928644;29;20038;-79
2023/10/31 06:06:18;;;;;;;37.13;20.70;;;;;;;;;;4928550;29;20032;-80
2023/10/31 06:08:44;;;;;;;40.25;20.98;;;;;;;;;;4926091;29;20036;-81
2023/10/31 06:11:12;;;;;;;44.42;24.00;;;;;;;;;;4923421;29;20405;-81
2023/10/31 06:13:38;;;;;;;43.60;24.40;;;;;;;;;;4920856;29;20104;-80
2023/10/31 06:16:05;;;;;;;40.75;25.08;;;;;;;;;;4926986;29;20059;-80
2023/10/31 06:18:31;;;;;;;40.58;25.38;;;;;;;;;;4924516;29;20036;-80
2023/10/31 06:20:57;;;;;;;43.65;25.17;;;;;;;;;;4931800;29;20043;-82
2023/10/31 06:23:23;;;;;;;35.95;23.38;;;;;;;;;;4927553;29;20035;-83
2023/10/31 06:25:50;;;;;;;36.58;23.20;;;;;;;;;;4925478;29;20040;-83
2023/10/31 06:28:17;;;;;;;32.92;19.73;;;;;;;;;;4925339;29;20035;-82
2023/10/31 06:30:43;;;;;;;30.48;18.73;;;;;;;;;;4923235;29;20048;-85
2023/10/31 06:33:10;;;;;;;24.98;15.95;;;;;;;;;;4925526;29;20032;-82
2023/10/31 06:35:36;;;;;;;26.58;15.38;;;;;;;;;;4925490;29;20043;-80
2023/10/31 06:38:02;;;;;;;25.02;13.90;;;;;;;;;;4925242;29;20559;-82
2023/10/31 06:40:28;;;;;;;20.42;10.85;;;;;;;;;;4924619;29;20027;-82
2023/10/31 06:42:54;;;;;;;20.02;9.13;;;;;;;;;;4924967;29;20059;-81
2023/10/31 06:45:21;;;;;;;14.00;8.13;;;;;;;;;;4930769;29;20036;-82
2023/10/31 06:47:47;;;;;;;14.82;8.50;;;;;;;;;;4925714;29;20032;-80
2023/10/31 06:50:13;;;;;;;11.57;7.47;;;;;;;;;;4931675;29;20070;-80
2023/10/31 06:52:40;;;;;;;14.93;6.43;;;;;;;;;;4940679;29;20051;-81
2023/10/31 06:55:06;;;;;;;15.55;6.38;;;;;;;;;;4942417;29;20048;-80
2023/10/31 06:57:33;;;;;;;14.63;5.93;;;;;;;;;;4927961;29;20034;-81
2023/10/31 06:59:59;;;;;;;14.00;5.53;;;;;;;;;;4926634;29;20079;-82
2023/10/31 07:02:25;;;;;;;12.68;5.13;;;;;;;;;;4920432;29;20060;-82
2023/10/31 07:04:52;;;;;;;8.80;4.85;;;;;;;;;;4927574;29;20046;-80
2023/10/31 07:07:18;;;;;;;12.25;4.82;;;;;;;;;;4929094;29;20032;-82
2023/10/31 07:09:44;;;;;;;13.57;4.90;;;;;;;;;;4925186;29;20028;-82
2023/10/31 07:12:10;;;;;;;12.77;4.88;;;;;;;;;;4924400;29;20170;-80
2023/10/31 07:14:36;;;;;;;13.40;5.75;;;;;;;;;;4927861;29;20035;-80
2023/10/31 07:17:03;;;;;;;14.07;4.57;;;;;;;;;;4928840;29;20039;-81
2023/10/31 07:19:29;;;;;;;11.98;5.00;;;;;;;;;;4934111;29;20028;-81
2023/10/31 07:21:55;;;;;;;13.90;4.35;;;;;;;;;;4930138;29;20055;-82
2023/10/31 07:24:21;;;;;;;15.30;4.68;;;;;;;;;;4929750;29;20174;-83
2023/10/31 07:26:47;;;;;;;14.43;5.65;;;;;;;;;;4930462;29;20043;-80
2023/10/31 07:29:13;;;;;;;10.82;4.15;;;;;;;;;;4918856;29;20043;-81
2023/10/31 07:31:40;;;;;;;12.82;4.47;;;;;;;;;;4920023;29;20035;-81
2023/10/31 07:34:06;;;;;;;15.27;4.72;;;;;;;;;;4925273;29;20087;-82
2023/10/31 07:36:34;;;;;;;9.27;4.75;;;;;;;;;;4932908;29;20039;-81
2023/10/31 07:39:01;;;;;;;11.88;4.80;;;;;;;;;;4940900;29;20134;-82
2023/10/31 07:41:27;;;;;;;10.88;5.15;;;;;;;;;;4914396;29;20051;-82
2023/10/31 07:43:53;;;;;;;9.65;4.47;;;;;;;;;;4933230;29;20040;-80
2023/10/31 07:46:19;;;;;;;12.27;4.93;;;;;;;;;;4929864;29;20043;-81
2023/10/31 07:48:45;;;;;;;11.75;4.60;;;;;;;;;;4930626;29;20115;-80
2023/10/31 07:51:11;;;;;;;12.50;4.63;;;;;;;;;;4925159;29;20042;-80
2023/10/31 07:53:37;;;;;;;16.67;5.90;;;;;;;;;;4945844;29;20074;-81
2023/10/31 07:56:04;;;;;;;13.48;5.60;;;;;;;;;;4943041;29;20529;-79
2023/10/31 07:58:30;;;;;;;14.98;5.65;;;;;;;;;;4913194;29;20065;-82
2023/10/31 08:00:56;;;;;;;11.80;5.32;;;;;;;;;;4926871;29;20525;-81
2023/10/31 08:03:23;;;;;;;14.52;6.88;;;;;;;;;;4932202;29;20051;-81
2023/10/31 08:05:49;;;;;;;18.92;5.80;;;;;;;;;;4934186;29;20059;-81
2023/10/31 08:08:15;;;;;;;11.27;5.32;;;;;;;;;;4932117;29;20039;-81
2023/10/31 08:10:41;;;;;;;19.95;6.65;;;;;;;;;;4930327;29;20039;-82
2023/10/31 08:13:07;;;;;;;13.18;6.10;;;;;;;;;;4930087;29;20031;-81
2023/10/31 08:15:33;;;;;;;17.75;6.30;;;;;;;;;;4931020;29;20036;-81
2023/10/31 08:17:59;;;;;;;20.10;6.50;;;;;;;;;;4938178;28;20454;-81
2023/10/31 08:20:26;;;;;;;16.60;7.07;;;;;;;;;;4926332;29;20059;-80
2023/10/31 08:22:52;;;;;;;16.77;7.03;;;;;;;;;;4927100;29;20146;-82
2023/10/31 08:25:18;;;;;;;14.43;6.80;;;;;;;;;;4931091;29;20410;-82
2023/10/31 08:27:45;;;;;;;14.90;6.50;;;;;;;;;;4932172;29;20111;-84
2023/10/31 08:30:11;;;;;;;15.68;6.55;;;;;;;;;;4931942;29;20118;-85
2023/10/31 08:32:37;;;;;;;12.88;6.35;;;;;;;;;;4920334;29;20075;-81
2023/10/31 08:35:04;;;;;;;13.52;6.05;;;;;;;;;;4930112;29;20023;-84
2023/10/31 08:37:30;;;;;;;15.30;6.22;;;;;;;;;;4932724;29;20055;-84
2023/10/31 08:39:56;;;;;;;15.38;6.43;;;;;;;;;;4929337;29;20040;-84
2023/10/31 08:42:22;;;;;;;15.75;6.35;;;;;;;;;;4944241;29;20039;-82
2023/10/31 08:44:48;;;;;;;14.90;6.55;;;;;;;;;;4929718;29;20095;-84
2023/10/31 08:47:14;;;;;;;17.27;6.28;;;;;;;;;;4923738;29;20382;-82
2023/10/31 08:49:40;;;;;;;17.70;6.35;;;;;;;;;;4922084;29;20035;-82
2023/10/31 08:52:06;;;;;;;11.48;5.80;;;;;;;;;;4933513;29;20051;-85
2023/10/31 08:54:33;;;;;;;17.33;6.15;;;;;;;;;;4926272;29;20032;-83
2023/10/31 08:56:59;;;;;;;13.93;5.63;;;;;;;;;;4918045;29;20034;-83
2023/10/31 08:59:25;;;;;;;17.38;6.75;;;;;;;;;;4922765;29;20032;-83
2023/10/31 09:01:51;;;;;;;15.25;6.25;;;;;;;;;;4927009;29;20481;-82
2023/10/31 09:04:17;;;;;;;16.30;6.75;;;;;;;;;;4928378;29;20047;-82
2023/10/31 09:06:43;;;;;;;17.38;7.13;;;;;;;;;;4931666;29;20471;-84
2023/10/31 09:09:10;;;;;;;21.45;7.22;;;;;;;;;;4923750;29;20036;-84
2023/10/31 09:11:36;;;;;;;16.42;6.85;;;;;;;;;;4933623;29;20043;-82
2023/10/31 09:14:03;;;;;;;18.67;7.72;;;;;;;;;;4929162;29;20464;-84
2023/10/31 09:16:29;;;;;;;18.23;7.55;;;;;;;;;;4914139;29;20020;-83
2023/10/31 09:18:55;;;;;;;21.60;7.03;;;;;;;;;;4929378;29;20063;-82
2023/10/31 09:21:21;;;;;;;18.38;7.10;;;;;;;;;;4937667;29;20070;-84
2023/10/31 09:23:47;;;;;;;16.05;6.20;;;;;;;;;;4931251;29;20039;-83
2023/10/31 09:26:14;;;;;;;16.38;6.00;;;;;;;;;;4931113;29;20035;-83
2023/10/31 09:28:42;;;;;;;22.85;6.43;;;;;;;;;;4932576;29;20046;-83
2023/10/31 09:31:09;;;;;;;18.05;6.53;;;;;;;;;;4934635;29;20130;-83
2023/10/31 09:33:35;;;;;;;21.00;6.20;;;;;;;;;;4934587;29;20035;-83
2023/10/31 09:36:02;;;;;;;16.40;6.20;;;;;;;;;;4950040;29;20038;-83
2023/10/31 09:38:28;;;;;;;16.60;6.75;;;;;;;;;;4935449;29;20035;-84
2023/10/31 09:40:55;;;;;;;18.50;5.80;;;;;;;;;;4930711;29;20031;-81
2023/10/31 09:43:21;;;;;;;15.48;6.10;;;;;;;;;;4925734;29;20081;-83
2023/10/31 09:45:48;;;;;;;15.73;6.68;;;;;;;;;;4930581;29;20036;-84
2023/10/31 09:48:15;;;;;;;15.63;6.68;;;;;;;;;;4934028;29;20039;-83
2023/10/31 09:50:42;;;;;;;15.80;6.32;;;;;;;;;;4937307;29;20036;-84
2023/10/31 09:53:09;;;;;;;13.18;6.38;;;;;;;;;;4936451;29;20043;-83
2023/10/31 09:55:35;;;;;;;12.90;6.10;;;;;;;;;;4925620;29;20020;-83
2023/10/31 09:58:01;;;;;;;17.38;5.60;;;;;;;;;;4947813;29;20083;-82
2023/10/31 10:00:27;;;;;;;20.83;5.85;;;;;;;;;;4937882;29;20024;-81
2023/10/31 10:02:55;;;;;;;18.77;5.60;;;;;;;;;;4934572;29;20051;-82
2023/10/31 10:05:21;;;;;;;14.52;5.80;;;;;;;;;;4923333;29;20054;-82
2023/10/31 10:07:47;;;;;;;16.50;5.13;;;;;;;;;;4920730;29;20028;-83
2023/10/31 10:10:13;;;;;;;14.02;5.38;;;;;;;;;;4926024;29;20043;-82
2023/10/31 10:12:42;;;;;;;17.63;5.43;;;;;;;;;;4926337;29;20048;-83
2023/10/31 10:15:10;;;;;;;17.40;5.97;;;;;;;;;;4927635;29;20031;-83
2023/10/31 10:17:36;;;;;;;16.48;6.97;;;;;;;;;;4923213;29;20111;-82
2023/10/31 10:20:13;;;;;;;18.40;6.10;;;;;;;;;;4921727;29;20024;-82
2023/10/31 10:22:43;;;;;;;20.58;7.28;;;;;;;;;;4923203;29;20040;-81
2023/10/31 10:25:15;;;;;;;18.88;6.30;;;;;;;;;;4927268;29;20142;-82
2023/10/31 10:27:41;;;;;;;15.05;5.68;;;;;;;;;;4925999;29;20040;-82
2023/10/31 10:30:09;;;;;;;12.18;5.38;;;;;;;;;;4942818;29;20043;-83
2023/10/31 10:32:35;;;;;;;18.05;5.65;;;;;;;;;;4924097;29;20040;-80
2023/10/31 10:35:01;;;;;;;16.80;5.63;;;;;;;;;;4923853;29;20042;-80
2023/10/31 10:37:28;;;;;;;17.58;6.10;;;;;;;;;;4943144;29;20028;-82
2023/10/31 10:39:55;;;;;;;17.50;5.78;;;;;;;;;;4924626;29;20028;-81
2023/10/31 10:42:28;;;;;;;15.70;5.28;;;;;;;;;;4929345;29;20111;-80
2023/10/31 10:44:56;;;;;;;18.60;5.00;;;;;;;;;;4927345;29;20559;-81
2023/10/31 10:47:22;;;;;;;13.65;4.25;;;;;;;;;;4923917;29;20460;-80
2023/10/31 10:49:51;;;;;;;14.95;4.82;;;;;;;;;;4933525;29;20043;-81
2023/10/31 10:52:20;;;;;;;12.93;4.93;;;;;;;;;;4932098;29;20028;-81
2023/10/31 10:54:46;;;;;;;11.27;4.45;;;;;;;;;;4932105;29;20032;-81
2023/10/31 10:57:21;;;;;;;14.55;4.10;;;;;;;;;;4928864;29;20035;-81
2023/10/31 10:59:52;;;;;;;16.58;4.70;;;;;;;;;;4929120;29;20028;-81
2023/10/31 11:02:19;;;;;;;11.48;5.10;;;;;;;;;;4926404;29;20063;-81
2023/10/31 11:04:45;;;;;;;11.88;3.90;;;;;;;;;;4918177;29;20289;-82
2023/10/31 11:07:12;;;;;;;10.80;4.13;;;;;;;;;;4929440;29;20050;-81
2023/10/31 11:09:38;;;;;;;11.18;3.88;;;;;;;;;;4924816;29;20027;-81
2023/10/31 11:12:04;;;;;;;11.10;3.40;;;;;;;;;;4926849;29;20476;-81
2023/10/31 11:14:34;;;;;;;12.40;3.50;;;;;;;;;;4925242;29;20055;-81
2023/10/31 11:17:06;;;;;;;15.13;3.50;;;;;;;;;;4942261;28;20020;-84
2023/10/31 11:19:33;;;;;;;8.25;3.42;;;;;;;;;;4929568;29;20099;-82
2023/10/31 11:22:01;;;;;;;15.15;4.57;;;;;;;;;;4939257;29;20067;-84
2023/10/31 11:24:28;;;;;;;12.10;3.35;;;;;;;;;;4927537;29;20035;-83
2023/10/31 11:26:59;;;;;;;10.57;4.50;;;;;;;;;;4925615;29;20075;-82
2023/10/31 11:29:25;;;;;;;12.65;3.28;;;;;;;;;;4929974;29;20028;-81
2023/10/31 11:31:52;;;;;;;14.60;4.07;;;;;;;;;;4926508;29;20142;-82
2023/10/31 11:34:20;;;;;;;14.48;4.18;;;;;;;;;;4927270;29;20043;-80
2023/10/31 11:36:47;;;;;;;13.65;4.10;;;;;;;;;;4927353;29;20015;-81
2023/10/31 11:39:14;;;;;;;17.95;4.10;;;;;;;;;;4922709;29;20032;-82
2023/10/31 11:41:40;;;;;;;9.60;3.92;;;;;;;;;;4926879;29;20024;-81
2023/10/31 11:44:06;;;;;;;12.93;3.70;;;;;;;;;;4922242;29;20548;-82
2023/10/31 11:46:32;;;;;;;12.60;3.90;;;;;;;;;;4923623;29;20158;-82
2023/10/31 11:49:01;;;;;;;12.65;4.40;;;;;;;;;;4927400;29;20071;-83
2023/10/31 11:51:27;;;;;;;15.07;4.10;;;;;;;;;;4920571;29;20039;-81
2023/10/31 11:53:53;;;;;;;27.33;7.00;;;;;;;;;;4922711;29;20346;-83
2023/10/31 11:56:20;;;;;;;19.20;6.70;;;;;;;;;;4927219;29;20110;-83
2023/10/31 11:58:57;;;;;;;21.92;7.57;;;;;;;;;;4927193;29;20035;-83
2023/10/31 12:01:23;;;;;;;20.83;11.20;;;;;;;;;;4943453;29;20071;-83
2023/10/31 12:03:51;;;;;;;27.88;13.10;;;;;;;;;;4929204;29;20182;-84
2023/10/31 12:06:18;;;;;;;19.65;11.65;;;;;;;;;;4918757;29;20115;-84
2023/10/31 12:08:47;;;;;;;16.90;11.80;;;;;;;;;;4932554;29;20162;-82
2023/10/31 12:11:15;;;;;;;17.50;11.55;;;;;;;;;;4934210;29;20183;-82
2023/10/31 12:13:42;;;;;;;23.52;12.13;;;;;;;;;;4934184;29;20032;-84
2023/10/31 12:16:10;;;;;;;25.80;15.75;;;;;;;;;;4928578;29;20099;-83
2023/10/31 12:18:38;;;;;;;33.05;20.48;;;;;;;;;;4929823;29;20035;-82
2023/10/31 12:21:07;;;;;;;33.95;20.50;;;;;;;;;;4920583;29;20031;-81
2023/10/31 12:23:33;;;;;;;43.53;22.55;;;;;;;;;;4922192;29;20036;-84
2023/10/31 12:25:59;;;;;;;54.10;24.88;;;;;;;;;;4909617;29;20489;-83
2023/10/31 12:28:27;;;;;;;56.05;26.75;;;;;;;;;;4929266;29;20105;-85
2023/10/31 12:30:54;;;;;;;60.15;28.83;;;;;;;;;;4934122;28;20038;-86
2023/10/31 12:33:22;;;;;;;51.42;28.27;;;;;;;;;;4929553;29;20027;-84
2023/10/31 12:35:49;;;;;;;57.20;28.33;;;;;;;;;;4919394;29;20043;-85
2023/10/31 12:38:15;;;;;;;49.28;27.42;;;;;;;;;;4929973;29;20537;-83
2023/10/31 12:40:43;;;;;;;61.38;29.80;;;;;;;;;;4943871;28;20034;-82
2023/10/31 12:43:10;;;;;;;61.60;30.45;;;;;;;;;;4924722;29;20064;-86
2023/10/31 12:45:37;;;;;;;70.03;31.67;;;;;;;;;;4928397;29;20246;-86
2023/10/31 12:48:10;;;;;;;73.97;31.65;;;;;;;;;;4918973;29;20118;-83
2023/10/31 12:50:37;;;;;;;72.00;33.05;;;;;;;;;;4931134;29;20044;-87
2023/10/31 12:53:04;;;;;;;61.40;30.75;;;;;;;;;;4924791;29;20248;-82
2023/10/31 12:55:31;;;;;;;67.65;31.77;;;;;;;;;;4930010;29;20079;-81
2023/10/31 12:57:58;;;;;;;61.63;30.45;;;;;;;;;;4934370;29;20024;-83
2023/10/31 13:00:31;;;;;;;53.35;29.25;;;;;;;;;;4932940;29;20052;-81
2023/10/31 13:03:08;;;;;;;54.10;28.92;;;;;;;;;;4938296;29;20051;-81
2023/10/31 13:05:34;;;;;;;46.53;25.67;;;;;;;;;;4933330;29;20097;-81
2023/10/31 13:08:03;;;;;;;46.83;25.13;;;;;;;;;;4925993;29;20038;-82
2023/10/31 13:10:29;;;;;;;50.70;24.48;;;;;;;;;;4927911;29;20394;-83
2023/10/31 13:12:56;;;;;;;37.67;22.15;;;;;;;;;;4938277;29;20060;-83
2023/10/31 13:15:23;;;;;;;34.45;20.73;;;;;;;;;;4930486;29;20027;-83
2023/10/31 13:17:50;;;;;;;39.72;21.55;;;;;;;;;;4932152;29;20170;-81
2023/10/31 13:20:17;;;;;;;35.67;22.20;;;;;;;;;;4933388;29;20378;-83
2023/10/31 13:22:44;;;;;;;38.42;21.73;;;;;;;;;;4926285;29;20059;-82
2023/10/31 13:25:11;;;;;;;33.55;21.65;;;;;;;;;;4929372;29;20035;-84
2023/10/31 13:27:38;;;;;;;38.90;22.65;;;;;;;;;;4930461;29;20544;-82
2023/10/31 13:30:05;;;;;;;40.08;20.45;;;;;;;;;;4923519;29;20059;-81
2023/10/31 13:32:31;;;;;;;28.15;19.15;;;;;;;;;;4907770;29;20051;-80
2023/10/31 13:34:57;;;;;;;41.40;22.77;;;;;;;;;;4925366;29;20185;-81
2023/10/31 13:37:23;;;;;;;33.65;21.42;;;;;;;;;;4925666;29;20422;-81
2023/10/31 13:39:49;;;;;;;34.70;21.92;;;;;;;;;;4928534;29;20031;-81
2023/10/31 13:42:15;;;;;;;44.00;24.70;;;;;;;;;;4927132;29;20044;-82
2023/10/31 13:44:45;;;;;;;47.30;27.30;;;;;;;;;;4922461;29;20433;-81
2023/10/31 13:47:11;;;;;;;52.92;30.52;;;;;;;;;;4925550;29;20036;-80
2023/10/31 13:49:37;;;;;;;47.65;29.27;;;;;;;;;;4932462;29;20043;-81
2023/10/31 13:52:07;;;;;;;56.95;31.70;;;;;;;;;;4946315;29;20044;-81
2023/10/31 13:54:33;;;;;;;51.17;30.20;;;;;;;;;;4932758;29;20035;-82
2023/10/31 13:57:00;;;;;;;55.97;30.77;;;;;;;;;;4933721;29;20123;-80
2023/10/31 13:59:26;;;;;;;51.05;31.77;;;;;;;;;;4936585;29;20043;-82
2023/10/31 14:01:52;;;;;;;55.85;33.65;;;;;;;;;;4931824;29;20050;-81
2023/10/31 14:04:19;;;;;;;58.13;33.58;;;;;;;;;;4927544;29;20522;-82
2023/10/31 14:06:45;;;;;;;57.50;34.25;;;;;;;;;;4907693;29;20518;-81
2023/10/31 14:09:12;;;;;;;55.33;33.92;;;;;;;;;;4926480;29;20051;-80
2023/10/31 14:11:39;;;;;;;53.33;35.13;;;;;;;;;;4923370;29;20027;-82
2023/10/31 14:14:13;;;;;;;54.03;33.92;;;;;;;;;;4925146;29;20036;-80
2023/10/31 14:16:45;;;;;;;58.50;37.13;;;;;;;;;;4928266;29;20039;-81
2023/10/31 14:19:12;;;;;;;56.05;34.88;;;;;;;;;;4927923;29;20033;-83
2023/10/31 14:21:39;;;;;;;56.83;35.60;;;;;;;;;;4923475;29;20118;-81
2023/10/31 14:24:05;;;;;;;56.50;34.42;;;;;;;;;;4946648;29;20035;-81